19:33
Airports
History
Links
Donate
Help keep this website running!
PayPal
Bitcoin
Information on this page is community maintained and may be outdated or inaccurate and is intended for reference only or PC simulator navigating.
Always use approved charts for navigating.
LIPR
Rimini Mil
Rimini Mil (LIPR)
Rimini, Emilia-Romagna, Italy (47924)
(C)
Lat/Lng:44° 1' 13.03" N / 12° 36' 42.29" E
44.020287 / 12.611746
Elevation:41'ft 12mMSL
ID / ICAO:LIPR
Runways:1
Longest:(13-31) 2,993.4m 9,821ft Asphalt
Controlled:Yes
Distance To
Airport ID:
Airport Radio Frequencies
Ground: 121.6
Tower: 122.1
Approach: 122.1
Nearby VORs <50NM
Nearby NDBs
METARUpdated 05-27-17 19:15 GMT
Altimeter: 30.09
Visibility: 6.2 statute miles
Wind: 0 knots (000°)
Temp: 22°c 72°f
Humidity: 64.5%

METAR: LIPR 271915Z 00000KT CAVOK 22/15 Q1019

(Powered by phpweather)
Runway 13 / 31
Dimensions:2993.4 x 45.1m 9821' x 148'ft
Surface:Asphalt
Edge Lights:Medium intensity
Runway 13 [A]Runway 31 [B]
Heading:127°TH 307°TH
Lat:
Lng:
44° 1' 42.71"N
12° 35' 49.07"E
44° 0' 43.35"N
12° 37' 35.5"E
ALS:Calvert ILS Cat IICalvert ILS Cat II
TDZ:Yes, lighted
User Notes and Comments
Google Map
Nearby Airports
(C) CERVIA 20.7 NM
LIPC (WX) NW 313°
4 Fano 24.7 NM
LIDF ESE 123°
(C) FORLI 29.5 NM
LIPK (WX) WNW 294°
(U) RAVENNA 30.5 NM
LIDR NW 321°
(U) Lugo di Romagna 45.6 NM
LIDG NW 304°
(C) FALCONARA 46.7 NM
LIPY (WX) SE 126°
4 Arezzo 54.6 NM
LIQB (WX) SW 224°
VFR Chart
Flight Planning at SkyVector.com